sensor_id;sensor_type;location;lat;lon;timestamp;P1;durP1;ratioP1;P2;durP2;ratioP2
9739;SDS011;4909;42.680;26.324;2023-04-25T00:01:31;6.13;;;2.37;;
9739;SDS011;4909;42.680;26.324;2023-04-25T00:04:01;5.83;;;2.20;;
9739;SDS011;4909;42.680;26.324;2023-04-25T00:06:27;6.93;;;2.57;;
9739;SDS011;4909;42.680;26.324;2023-04-25T00:08:56;5.97;;;2.37;;
9739;SDS011;4909;42.680;26.324;2023-04-25T00:11:23;7.17;;;2.47;;
9739;SDS011;4909;42.680;26.324;2023-04-25T00:13:50;7.17;;;2.53;;
9739;SDS011;4909;42.680;26.324;2023-04-25T00:16:17;6.17;;;2.30;;
9739;SDS011;4909;42.680;26.324;2023-04-25T00:18:45;7.40;;;2.67;;
9739;SDS011;4909;42.680;26.324;2023-04-25T00:21:16;7.47;;;2.57;;
9739;SDS011;4909;42.680;26.324;2023-04-25T00:23:43;6.33;;;2.30;;
9739;SDS011;4909;42.680;26.324;2023-04-25T00:26:11;7.57;;;2.77;;
9739;SDS011;4909;42.680;26.324;2023-04-25T00:28:38;6.53;;;2.47;;
9739;SDS011;4909;42.680;26.324;2023-04-25T00:31:05;7.10;;;2.70;;
9739;SDS011;4909;42.680;26.324;2023-04-25T00:33:32;5.93;;;2.17;;
9739;SDS011;4909;42.680;26.324;2023-04-25T00:36:01;7.43;;;2.63;;
9739;SDS011;4909;42.680;26.324;2023-04-25T00:38:28;5.80;;;2.20;;
9739;SDS011;4909;42.680;26.324;2023-04-25T00:40:54;5.70;;;2.33;;
9739;SDS011;4909;42.680;26.324;2023-04-25T00:43:22;4.37;;;1.83;;
9739;SDS011;4909;42.680;26.324;2023-04-25T00:45:50;5.53;;;2.07;;
9739;SDS011;4909;42.680;26.324;2023-04-25T00:48:18;8.00;;;2.70;;
9739;SDS011;4909;42.680;26.324;2023-04-25T00:50:48;6.70;;;2.23;;
9739;SDS011;4909;42.680;26.324;2023-04-25T00:53:20;5.60;;;2.07;;
9739;SDS011;4909;42.680;26.324;2023-04-25T00:55:47;6.03;;;2.30;;
9739;SDS011;4909;42.680;26.324;2023-04-25T00:58:16;5.90;;;2.10;;
9739;SDS011;4909;42.680;26.324;2023-04-25T01:00:43;7.07;;;2.50;;
9739;SDS011;4909;42.680;26.324;2023-04-25T01:03:10;5.50;;;2.10;;
9739;SDS011;4909;42.680;26.324;2023-04-25T01:05:37;7.97;;;2.73;;
9739;SDS011;4909;42.680;26.324;2023-04-25T01:08:05;7.43;;;2.50;;
9739;SDS011;4909;42.680;26.324;2023-04-25T01:10:33;4.60;;;1.77;;
9739;SDS011;4909;42.680;26.324;2023-04-25T01:13:00;5.23;;;1.90;;
9739;SDS011;4909;42.680;26.324;2023-04-25T01:15:27;5.63;;;2.03;;
9739;SDS011;4909;42.680;26.324;2023-04-25T01:17:54;6.63;;;2.40;;
9739;SDS011;4909;42.680;26.324;2023-04-25T01:20:21;4.77;;;1.80;;
9739;SDS011;4909;42.680;26.324;2023-04-25T01:22:50;6.20;;;2.30;;
9739;SDS011;4909;42.680;26.324;2023-04-25T01:25:19;5.30;;;1.97;;
9739;SDS011;4909;42.680;26.324;2023-04-25T01:27:46;6.13;;;2.13;;
9739;SDS011;4909;42.680;26.324;2023-04-25T01:30:13;6.77;;;2.37;;
9739;SDS011;4909;42.680;26.324;2023-04-25T01:32:40;5.07;;;1.93;;
9739;SDS011;4909;42.680;26.324;2023-04-25T01:35:09;5.73;;;2.10;;
9739;SDS011;4909;42.680;26.324;2023-04-25T01:37:38;6.90;;;2.47;;
9739;SDS011;4909;42.680;26.324;2023-04-25T01:40:07;4.80;;;1.93;;
9739;SDS011;4909;42.680;26.324;2023-04-25T01:42:36;5.87;;;2.20;;
9739;SDS011;4909;42.680;26.324;2023-04-25T01:45:04;6.97;;;2.43;;
9739;SDS011;4909;42.680;26.324;2023-04-25T01:47:32;7.23;;;2.50;;
9739;SDS011;4909;42.680;26.324;2023-04-25T01:50:00;7.03;;;2.53;;
9739;SDS011;4909;42.680;26.324;2023-04-25T01:52:27;7.33;;;2.63;;
9739;SDS011;4909;42.680;26.324;2023-04-25T01:54:53;7.07;;;2.53;;
9739;SDS011;4909;42.680;26.324;2023-04-25T01:57:22;5.83;;;2.27;;
9739;SDS011;4909;42.680;26.324;2023-04-25T01:59:49;6.13;;;2.37;;
9739;SDS011;4909;42.680;26.324;2023-04-25T02:02:16;5.57;;;2.07;;
9739;SDS011;4909;42.680;26.324;2023-04-25T02:04:43;5.73;;;2.13;;
9739;SDS011;4909;42.680;26.324;2023-04-25T02:07:10;6.00;;;2.20;;
9739;SDS011;4909;42.680;26.324;2023-04-25T02:09:37;6.70;;;2.37;;
9739;SDS011;4909;42.680;26.324;2023-04-25T02:12:04;7.47;;;2.63;;
9739;SDS011;4909;42.680;26.324;2023-04-25T02:14:32;6.73;;;2.43;;
9739;SDS011;4909;42.680;26.324;2023-04-25T02:16:59;6.13;;;2.23;;
9739;SDS011;4909;42.680;26.324;2023-04-25T02:19:25;5.87;;;2.20;;
9739;SDS011;4909;42.680;26.324;2023-04-25T02:21:52;6.10;;;2.20;;
9739;SDS011;4909;42.680;26.324;2023-04-25T02:24:19;5.20;;;2.00;;
9739;SDS011;4909;42.680;26.324;2023-04-25T02:26:46;5.73;;;2.20;;
9739;SDS011;4909;42.680;26.324;2023-04-25T02:29:14;6.43;;;2.30;;
9739;SDS011;4909;42.680;26.324;2023-04-25T02:31:42;8.93;;;2.93;;
9739;SDS011;4909;42.680;26.324;2023-04-25T02:34:09;6.90;;;2.47;;
9739;SDS011;4909;42.680;26.324;2023-04-25T02:36:35;6.77;;;2.37;;
9739;SDS011;4909;42.680;26.324;2023-04-25T02:39:02;7.00;;;2.50;;
9739;SDS011;4909;42.680;26.324;2023-04-25T02:41:30;6.80;;;2.43;;
9739;SDS011;4909;42.680;26.324;2023-04-25T02:43:56;7.33;;;2.70;;
9739;SDS011;4909;42.680;26.324;2023-04-25T02:46:23;5.87;;;2.27;;
9739;SDS011;4909;42.680;26.324;2023-04-25T02:48:51;6.50;;;2.33;;
9739;SDS011;4909;42.680;26.324;2023-04-25T02:51:18;6.33;;;2.30;;
9739;SDS011;4909;42.680;26.324;2023-04-25T02:53:45;7.27;;;2.53;;
9739;SDS011;4909;42.680;26.324;2023-04-25T02:56:11;5.83;;;2.20;;
9739;SDS011;4909;42.680;26.324;2023-04-25T02:58:38;6.67;;;2.50;;
9739;SDS011;4909;42.680;26.324;2023-04-25T03:01:05;6.77;;;2.30;;
9739;SDS011;4909;42.680;26.324;2023-04-25T03:03:32;6.30;;;2.33;;
9739;SDS011;4909;42.680;26.324;2023-04-25T03:06:00;4.87;;;1.90;;
9739;SDS011;4909;42.680;26.324;2023-04-25T03:08:27;6.60;;;2.50;;
9739;SDS011;4909;42.680;26.324;2023-04-25T03:10:57;6.77;;;2.63;;
9739;SDS011;4909;42.680;26.324;2023-04-25T03:13:24;6.53;;;2.33;;
9739;SDS011;4909;42.680;26.324;2023-04-25T03:15:52;6.87;;;2.47;;
9739;SDS011;4909;42.680;26.324;2023-04-25T03:18:19;7.27;;;2.60;;
9739;SDS011;4909;42.680;26.324;2023-04-25T03:20:45;4.40;;;1.80;;
9739;SDS011;4909;42.680;26.324;2023-04-25T03:23:14;5.67;;;2.17;;
9739;SDS011;4909;42.680;26.324;2023-04-25T03:25:40;6.17;;;2.37;;
9739;SDS011;4909;42.680;26.324;2023-04-25T03:28:08;5.53;;;2.13;;
9739;SDS011;4909;42.680;26.324;2023-04-25T03:30:34;7.23;;;2.57;;
9739;SDS011;4909;42.680;26.324;2023-04-25T03:33:01;7.60;;;2.70;;
9739;SDS011;4909;42.680;26.324;2023-04-25T03:35:28;4.60;;;1.90;;
9739;SDS011;4909;42.680;26.324;2023-04-25T03:37:55;4.60;;;1.87;;
9739;SDS011;4909;42.680;26.324;2023-04-25T03:40:23;6.87;;;2.53;;
9739;SDS011;4909;42.680;26.324;2023-04-25T03:42:50;6.70;;;2.37;;
9739;SDS011;4909;42.680;26.324;2023-04-25T03:45:17;6.63;;;2.40;;
9739;SDS011;4909;42.680;26.324;2023-04-25T03:47:43;5.40;;;2.17;;
9739;SDS011;4909;42.680;26.324;2023-04-25T03:50:10;8.67;;;2.87;;
9739;SDS011;4909;42.680;26.324;2023-04-25T03:52:37;6.17;;;2.30;;
9739;SDS011;4909;42.680;26.324;2023-04-25T03:55:04;7.03;;;2.53;;
9739;SDS011;4909;42.680;26.324;2023-04-25T03:57:33;6.43;;;2.30;;
9739;SDS011;4909;42.680;26.324;2023-04-25T03:59:59;5.93;;;2.23;;
9739;SDS011;4909;42.680;26.324;2023-04-25T04:02:26;6.67;;;2.53;;
9739;SDS011;4909;42.680;26.324;2023-04-25T04:04:53;8.93;;;3.07;;
9739;SDS011;4909;42.680;26.324;2023-04-25T04:07:21;6.93;;;2.40;;
9739;SDS011;4909;42.680;26.324;2023-04-25T04:09:47;7.27;;;2.53;;
9739;SDS011;4909;42.680;26.324;2023-04-25T04:12:14;6.00;;;2.20;;
9739;SDS011;4909;42.680;26.324;2023-04-25T04:14:42;9.30;;;3.00;;
9739;SDS011;4909;42.680;26.324;2023-04-25T04:17:09;6.17;;;2.40;;
9739;SDS011;4909;42.680;26.324;2023-04-25T04:19:36;8.17;;;2.70;;
9739;SDS011;4909;42.680;26.324;2023-04-25T04:22:02;8.90;;;3.20;;
9739;SDS011;4909;42.680;26.324;2023-04-25T04:24:29;7.40;;;2.53;;
9739;SDS011;4909;42.680;26.324;2023-04-25T04:26:56;7.73;;;2.60;;
9739;SDS011;4909;42.680;26.324;2023-04-25T04:29:24;6.67;;;2.43;;
9739;SDS011;4909;42.680;26.324;2023-04-25T04:31:52;7.43;;;2.63;;
9739;SDS011;4909;42.680;26.324;2023-04-25T04:34:18;5.27;;;2.03;;
9739;SDS011;4909;42.680;26.324;2023-04-25T04:36:45;6.20;;;2.27;;
9739;SDS011;4909;42.680;26.324;2023-04-25T04:39:12;7.50;;;2.70;;
9739;SDS011;4909;42.680;26.324;2023-04-25T04:41:40;4.87;;;2.00;;
9739;SDS011;4909;42.680;26.324;2023-04-25T04:44:07;6.57;;;2.47;;
9739;SDS011;4909;42.680;26.324;2023-04-25T04:46:35;5.67;;;2.10;;
9739;SDS011;4909;42.680;26.324;2023-04-25T04:49:07;7.50;;;2.57;;
9739;SDS011;4909;42.680;26.324;2023-04-25T04:51:33;7.50;;;2.53;;
9739;SDS011;4909;42.680;26.324;2023-04-25T04:54:01;6.53;;;2.30;;
9739;SDS011;4909;42.680;26.324;2023-04-25T04:56:29;6.67;;;2.23;;
9739;SDS011;4909;42.680;26.324;2023-04-25T04:58:56;9.53;;;3.00;;
9739;SDS011;4909;42.680;26.324;2023-04-25T05:01:23;5.03;;;1.80;;
9739;SDS011;4909;42.680;26.324;2023-04-25T05:03:51;4.90;;;1.80;;
9739;SDS011;4909;42.680;26.324;2023-04-25T05:06:19;7.63;;;2.70;;
9739;SDS011;4909;42.680;26.324;2023-04-25T05:08:46;5.93;;;2.23;;
9739;SDS011;4909;42.680;26.324;2023-04-25T05:11:12;7.57;;;2.57;;
9739;SDS011;4909;42.680;26.324;2023-04-25T05:13:39;6.10;;;2.17;;
9739;SDS011;4909;42.680;26.324;2023-04-25T05:16:06;5.70;;;2.03;;
9739;SDS011;4909;42.680;26.324;2023-04-25T05:18:32;4.73;;;1.80;;
9739;SDS011;4909;42.680;26.324;2023-04-25T05:21:00;6.00;;;2.20;;
9739;SDS011;4909;42.680;26.324;2023-04-25T05:23:28;5.87;;;2.20;;
9739;SDS011;4909;42.680;26.324;2023-04-25T05:25:55;5.30;;;2.10;;
9739;SDS011;4909;42.680;26.324;2023-04-25T05:28:22;8.83;;;3.03;;
9739;SDS011;4909;42.680;26.324;2023-04-25T05:30:48;7.07;;;2.47;;
9739;SDS011;4909;42.680;26.324;2023-04-25T05:33:15;6.97;;;2.50;;
9739;SDS011;4909;42.680;26.324;2023-04-25T05:35:42;9.33;;;3.03;;
9739;SDS011;4909;42.680;26.324;2023-04-25T05:38:09;9.30;;;3.10;;
9739;SDS011;4909;42.680;26.324;2023-04-25T05:40:37;7.83;;;2.60;;
9739;SDS011;4909;42.680;26.324;2023-04-25T05:43:04;7.50;;;2.63;;
9739;SDS011;4909;42.680;26.324;2023-04-25T05:45:31;5.17;;;2.03;;
9739;SDS011;4909;42.680;26.324;2023-04-25T05:47:57;6.73;;;2.53;;
9739;SDS011;4909;42.680;26.324;2023-04-25T05:50:24;6.27;;;2.40;;
9739;SDS011;4909;42.680;26.324;2023-04-25T05:52:51;8.97;;;3.00;;
9739;SDS011;4909;42.680;26.324;2023-04-25T05:55:18;9.53;;;3.13;;
9739;SDS011;4909;42.680;26.324;2023-04-25T05:57:46;6.03;;;2.23;;
9739;SDS011;4909;42.680;26.324;2023-04-25T06:00:13;7.73;;;2.63;;
9739;SDS011;4909;42.680;26.324;2023-04-25T06:02:41;7.50;;;2.67;;
9739;SDS011;4909;42.680;26.324;2023-04-25T06:05:08;8.17;;;2.87;;
9739;SDS011;4909;42.680;26.324;2023-04-25T06:07:35;6.87;;;2.43;;
9739;SDS011;4909;42.680;26.324;2023-04-25T06:10:01;8.80;;;2.90;;
9739;SDS011;4909;42.680;26.324;2023-04-25T06:12:31;7.47;;;2.47;;
9739;SDS011;4909;42.680;26.324;2023-04-25T06:14:59;7.60;;;2.67;;
9739;SDS011;4909;42.680;26.324;2023-04-25T06:17:26;6.37;;;2.33;;
9739;SDS011;4909;42.680;26.324;2023-04-25T06:19:53;5.07;;;2.07;;
9739;SDS011;4909;42.680;26.324;2023-04-25T06:22:19;7.03;;;2.53;;
9739;SDS011;4909;42.680;26.324;2023-04-25T06:24:46;7.53;;;2.63;;
9739;SDS011;4909;42.680;26.324;2023-04-25T06:27:13;5.90;;;2.20;;
9739;SDS011;4909;42.680;26.324;2023-04-25T06:29:39;7.60;;;2.70;;
9739;SDS011;4909;42.680;26.324;2023-04-25T06:32:08;8.57;;;2.83;;
9739;SDS011;4909;42.680;26.324;2023-04-25T06:34:34;8.27;;;2.83;;
9739;SDS011;4909;42.680;26.324;2023-04-25T06:37:01;8.00;;;2.90;;
9739;SDS011;4909;42.680;26.324;2023-04-25T06:39:28;5.43;;;2.20;;
9739;SDS011;4909;42.680;26.324;2023-04-25T06:41:55;7.47;;;2.70;;
9739;SDS011;4909;42.680;26.324;2023-04-25T06:44:22;9.87;;;3.23;;
9739;SDS011;4909;42.680;26.324;2023-04-25T06:46:51;5.53;;;2.20;;
9739;SDS011;4909;42.680;26.324;2023-04-25T06:49:19;6.53;;;2.57;;
9739;SDS011;4909;42.680;26.324;2023-04-25T06:51:46;8.13;;;2.73;;
9739;SDS011;4909;42.680;26.324;2023-04-25T06:54:13;7.40;;;2.63;;
9739;SDS011;4909;42.680;26.324;2023-04-25T06:56:39;6.47;;;2.50;;
9739;SDS011;4909;42.680;26.324;2023-04-25T06:59:06;5.13;;;2.00;;
9739;SDS011;4909;42.680;26.324;2023-04-25T07:01:34;5.50;;;1.97;;
9739;SDS011;4909;42.680;26.324;2023-04-25T07:04:01;6.63;;;2.50;;
9739;SDS011;4909;42.680;26.324;2023-04-25T07:06:29;5.30;;;1.93;;
9739;SDS011;4909;42.680;26.324;2023-04-25T07:08:56;5.30;;;2.00;;
9739;SDS011;4909;42.680;26.324;2023-04-25T07:11:23;6.03;;;2.20;;
9739;SDS011;4909;42.680;26.324;2023-04-25T07:13:50;4.53;;;1.80;;
9739;SDS011;4909;42.680;26.324;2023-04-25T07:16:16;5.50;;;2.03;;
9739;SDS011;4909;42.680;26.324;2023-04-25T07:18:43;9.13;;;3.00;;
9739;SDS011;4909;42.680;26.324;2023-04-25T07:21:10;8.10;;;2.80;;
9739;SDS011;4909;42.680;26.324;2023-04-25T07:23:38;6.50;;;2.33;;
9739;SDS011;4909;42.680;26.324;2023-04-25T07:26:05;7.47;;;2.63;;
9739;SDS011;4909;42.680;26.324;2023-04-25T07:28:32;5.23;;;1.97;;
9739;SDS011;4909;42.680;26.324;2023-04-25T07:30:59;6.63;;;2.37;;
9739;SDS011;4909;42.680;26.324;2023-04-25T07:33:26;5.80;;;2.07;;
9739;SDS011;4909;42.680;26.324;2023-04-25T07:35:53;9.63;;;3.07;;
9739;SDS011;4909;42.680;26.324;2023-04-25T07:38:20;6.60;;;2.33;;
9739;SDS011;4909;42.680;26.324;2023-04-25T07:40:49;6.47;;;2.23;;
9739;SDS011;4909;42.680;26.324;2023-04-25T07:43:15;5.03;;;1.97;;
9739;SDS011;4909;42.680;26.324;2023-04-25T07:45:42;6.03;;;2.33;;
9739;SDS011;4909;42.680;26.324;2023-04-25T07:48:09;9.40;;;3.13;;
9739;SDS011;4909;42.680;26.324;2023-04-25T07:50:36;5.07;;;2.03;;
9739;SDS011;4909;42.680;26.324;2023-04-25T07:53:02;5.17;;;2.10;;
9739;SDS011;4909;42.680;26.324;2023-04-25T07:55:29;6.37;;;2.40;;
9739;SDS011;4909;42.680;26.324;2023-04-25T07:57:57;6.33;;;2.20;;
9739;SDS011;4909;42.680;26.324;2023-04-25T08:00:24;6.80;;;2.60;;
9739;SDS011;4909;42.680;26.324;2023-04-25T08:02:51;4.70;;;2.00;;
9739;SDS011;4909;42.680;26.324;2023-04-25T08:05:17;6.53;;;2.50;;
9739;SDS011;4909;42.680;26.324;2023-04-25T08:07:44;5.10;;;2.00;;
9739;SDS011;4909;42.680;26.324;2023-04-25T08:10:11;8.30;;;2.83;;
9739;SDS011;4909;42.680;26.324;2023-04-25T08:12:38;6.43;;;2.37;;
9739;SDS011;4909;42.680;26.324;2023-04-25T08:15:06;8.57;;;3.07;;
9739;SDS011;4909;42.680;26.324;2023-04-25T08:17:34;6.53;;;2.33;;
9739;SDS011;4909;42.680;26.324;2023-04-25T08:20:01;4.50;;;1.90;;
9739;SDS011;4909;42.680;26.324;2023-04-25T08:22:30;7.90;;;2.83;;
9739;SDS011;4909;42.680;26.324;2023-04-25T08:24:57;9.17;;;3.10;;
9739;SDS011;4909;42.680;26.324;2023-04-25T08:30:11;8.20;;;3.07;;
9739;SDS011;4909;42.680;26.324;2023-04-25T08:32:38;6.50;;;2.87;;
9739;SDS011;4909;42.680;26.324;2023-04-25T08:35:05;6.87;;;3.90;;
9739;SDS011;4909;42.680;26.324;2023-04-25T08:37:32;7.50;;;3.37;;
9739;SDS011;4909;42.680;26.324;2023-04-25T08:39:59;8.97;;;3.23;;
9739;SDS011;4909;42.680;26.324;2023-04-25T08:42:26;6.10;;;2.60;;
9739;SDS011;4909;42.680;26.324;2023-04-25T08:44:54;8.77;;;3.30;;
9739;SDS011;4909;42.680;26.324;2023-04-25T08:47:23;7.43;;;2.90;;
9739;SDS011;4909;42.680;26.324;2023-04-25T08:49:52;5.50;;;2.70;;
9739;SDS011;4909;42.680;26.324;2023-04-25T08:52:21;9.63;;;3.60;;
9739;SDS011;4909;42.680;26.324;2023-04-25T08:54:49;6.43;;;2.63;;
9739;SDS011;4909;42.680;26.324;2023-04-25T08:57:18;6.50;;;2.77;;
9739;SDS011;4909;42.680;26.324;2023-04-25T08:59:45;6.90;;;2.97;;
9739;SDS011;4909;42.680;26.324;2023-04-25T09:02:14;8.77;;;3.43;;
9739;SDS011;4909;42.680;26.324;2023-04-25T09:04:44;14.87;;;5.43;;
9739;SDS011;4909;42.680;26.324;2023-04-25T09:07:11;11.47;;;4.30;;
9739;SDS011;4909;42.680;26.324;2023-04-25T09:09:40;10.13;;;4.03;;
9739;SDS011;4909;42.680;26.324;2023-04-25T09:12:07;8.40;;;3.73;;
9739;SDS011;4909;42.680;26.324;2023-04-25T09:14:34;6.57;;;3.00;;
9739;SDS011;4909;42.680;26.324;2023-04-25T09:17:02;5.90;;;3.10;;
9739;SDS011;4909;42.680;26.324;2023-04-25T09:19:30;5.87;;;3.07;;
9739;SDS011;4909;42.680;26.324;2023-04-25T09:22:00;7.33;;;3.50;;
9739;SDS011;4909;42.680;26.324;2023-04-25T09:24:32;10.17;;;4.20;;
9739;SDS011;4909;42.680;26.324;2023-04-25T09:26:59;8.37;;;3.90;;
9739;SDS011;4909;42.680;26.324;2023-04-25T09:29:30;7.97;;;3.80;;
9739;SDS011;4909;42.680;26.324;2023-04-25T09:32:10;7.97;;;4.03;;
9739;SDS011;4909;42.680;26.324;2023-04-25T09:34:42;9.10;;;4.10;;
9739;SDS011;4909;42.680;26.324;2023-04-25T09:37:11;8.97;;;4.30;;
9739;SDS011;4909;42.680;26.324;2023-04-25T09:39:38;8.43;;;3.67;;
9739;SDS011;4909;42.680;26.324;2023-04-25T09:42:05;6.57;;;3.33;;
9739;SDS011;4909;42.680;26.324;2023-04-25T09:44:32;10.13;;;4.17;;
9739;SDS011;4909;42.680;26.324;2023-04-25T09:46:59;11.67;;;4.60;;
9739;SDS011;4909;42.680;26.324;2023-04-25T09:49:28;8.43;;;3.90;;
9739;SDS011;4909;42.680;26.324;2023-04-25T09:51:55;8.20;;;3.97;;
9739;SDS011;4909;42.680;26.324;2023-04-25T09:54:24;7.47;;;3.70;;
9739;SDS011;4909;42.680;26.324;2023-04-25T09:56:51;6.90;;;3.90;;
9739;SDS011;4909;42.680;26.324;2023-04-25T09:59:19;7.60;;;4.00;;
9739;SDS011;4909;42.680;26.324;2023-04-25T10:01:47;10.20;;;4.60;;
9739;SDS011;4909;42.680;26.324;2023-04-25T10:04:16;6.00;;;3.20;;
9739;SDS011;4909;42.680;26.324;2023-04-25T10:06:46;6.13;;;3.33;;
9739;SDS011;4909;42.680;26.324;2023-04-25T10:09:15;11.30;;;4.43;;
9739;SDS011;4909;42.680;26.324;2023-04-25T10:11:47;6.67;;;3.53;;
9739;SDS011;4909;42.680;26.324;2023-04-25T10:14:14;9.87;;;4.30;;
9739;SDS011;4909;42.680;26.324;2023-04-25T10:16:41;8.40;;;3.80;;
9739;SDS011;4909;42.680;26.324;2023-04-25T10:19:09;9.57;;;3.90;;
9739;SDS011;4909;42.680;26.324;2023-04-25T10:21:36;7.37;;;3.67;;
9739;SDS011;4909;42.680;26.324;2023-04-25T10:24:07;7.33;;;3.77;;
9739;SDS011;4909;42.680;26.324;2023-04-25T10:26:34;6.90;;;3.83;;
9739;SDS011;4909;42.680;26.324;2023-04-25T10:29:03;8.57;;;4.37;;
9739;SDS011;4909;42.680;26.324;2023-04-25T10:31:30;8.53;;;3.93;;
9739;SDS011;4909;42.680;26.324;2023-04-25T10:33:57;11.47;;;4.93;;
9739;SDS011;4909;42.680;26.324;2023-04-25T10:36:25;6.77;;;3.70;;
9739;SDS011;4909;42.680;26.324;2023-04-25T10:38:53;7.93;;;4.10;;
9739;SDS011;4909;42.680;26.324;2023-04-25T10:41:20;9.67;;;4.47;;
9739;SDS011;4909;42.680;26.324;2023-04-25T10:43:48;7.33;;;3.90;;
9739;SDS011;4909;42.680;26.324;2023-04-25T10:46:17;9.13;;;4.23;;
9739;SDS011;4909;42.680;26.324;2023-04-25T10:48:49;9.63;;;4.27;;
9739;SDS011;4909;42.680;26.324;2023-04-25T10:51:17;6.53;;;3.80;;
9739;SDS011;4909;42.680;26.324;2023-04-25T10:53:46;10.90;;;4.53;;
9739;SDS011;4909;42.680;26.324;2023-04-25T10:56:22;7.53;;;3.70;;
9739;SDS011;4909;42.680;26.324;2023-04-25T10:58:51;9.30;;;4.00;;
9739;SDS011;4909;42.680;26.324;2023-04-25T11:01:20;8.30;;;3.60;;
9739;SDS011;4909;42.680;26.324;2023-04-25T11:03:56;9.13;;;4.57;;
9739;SDS011;4909;42.680;26.324;2023-04-25T11:06:27;6.70;;;3.63;;
9739;SDS011;4909;42.680;26.324;2023-04-25T11:08:59;8.73;;;4.17;;
9739;SDS011;4909;42.680;26.324;2023-04-25T11:11:28;7.27;;;3.90;;
9739;SDS011;4909;42.680;26.324;2023-04-25T11:13:55;6.93;;;3.60;;
9739;SDS011;4909;42.680;26.324;2023-04-25T11:16:24;8.73;;;3.87;;
9739;SDS011;4909;42.680;26.324;2023-04-25T11:18:51;8.80;;;4.03;;
9739;SDS011;4909;42.680;26.324;2023-04-25T11:21:18;7.17;;;3.50;;
9739;SDS011;4909;42.680;26.324;2023-04-25T11:23:45;11.17;;;4.50;;
9739;SDS011;4909;42.680;26.324;2023-04-25T11:26:12;7.57;;;3.60;;
9739;SDS011;4909;42.680;26.324;2023-04-25T11:28:39;8.53;;;3.87;;
9739;SDS011;4909;42.680;26.324;2023-04-25T11:31:06;11.83;;;4.47;;
9739;SDS011;4909;42.680;26.324;2023-04-25T11:33:36;4.57;;;2.90;;
9739;SDS011;4909;42.680;26.324;2023-04-25T11:36:03;7.97;;;3.73;;
9739;SDS011;4909;42.680;26.324;2023-04-25T11:38:30;4.67;;;2.97;;
9739;SDS011;4909;42.680;26.324;2023-04-25T11:40:57;4.10;;;2.83;;
9739;SDS011;4909;42.680;26.324;2023-04-25T11:43:25;4.47;;;3.30;;
9739;SDS011;4909;42.680;26.324;2023-04-25T11:45:52;7.00;;;3.77;;
9739;SDS011;4909;42.680;26.324;2023-04-25T11:48:19;6.00;;;3.20;;
9739;SDS011;4909;42.680;26.324;2023-04-25T11:50:47;7.80;;;3.93;;
9739;SDS011;4909;42.680;26.324;2023-04-25T11:53:14;8.37;;;4.17;;
9739;SDS011;4909;42.680;26.324;2023-04-25T11:55:44;10.43;;;4.53;;
9739;SDS011;4909;42.680;26.324;2023-04-25T11:58:11;8.93;;;4.30;;
9739;SDS011;4909;42.680;26.324;2023-04-25T12:00:38;7.20;;;3.87;;
9739;SDS011;4909;42.680;26.324;2023-04-25T12:03:08;9.40;;;4.37;;
9739;SDS011;4909;42.680;26.324;2023-04-25T12:05:35;12.20;;;5.23;;
9739;SDS011;4909;42.680;26.324;2023-04-25T12:08:13;9.67;;;4.23;;
9739;SDS011;4909;42.680;26.324;2023-04-25T12:10:41;8.77;;;3.97;;
9739;SDS011;4909;42.680;26.324;2023-04-25T12:13:19;8.90;;;4.20;;
9739;SDS011;4909;42.680;26.324;2023-04-25T12:15:47;5.57;;;3.03;;
9739;SDS011;4909;42.680;26.324;2023-04-25T12:18:14;8.73;;;3.80;;
9739;SDS011;4909;42.680;26.324;2023-04-25T12:20:41;10.73;;;4.53;;
9739;SDS011;4909;42.680;26.324;2023-04-25T12:23:07;6.83;;;3.50;;
9739;SDS011;4909;42.680;26.324;2023-04-25T12:25:38;6.33;;;3.17;;
9739;SDS011;4909;42.680;26.324;2023-04-25T12:28:10;8.33;;;3.50;;
9739;SDS011;4909;42.680;26.324;2023-04-25T12:30:51;9.80;;;4.13;;
9739;SDS011;4909;42.680;26.324;2023-04-25T12:33:20;9.93;;;3.97;;
9739;SDS011;4909;42.680;26.324;2023-04-25T12:35:46;6.97;;;3.30;;
9739;SDS011;4909;42.680;26.324;2023-04-25T12:38:20;8.23;;;3.60;;
9739;SDS011;4909;42.680;26.324;2023-04-25T12:40:48;10.67;;;4.00;;
9739;SDS011;4909;42.680;26.324;2023-04-25T12:43:15;6.73;;;3.13;;
9739;SDS011;4909;42.680;26.324;2023-04-25T12:45:42;8.30;;;3.40;;
9739;SDS011;4909;42.680;26.324;2023-04-25T12:48:09;7.30;;;3.27;;
9739;SDS011;4909;42.680;26.324;2023-04-25T12:50:36;8.23;;;3.47;;
9739;SDS011;4909;42.680;26.324;2023-04-25T12:53:02;9.63;;;3.77;;
9739;SDS011;4909;42.680;26.324;2023-04-25T12:55:29;8.00;;;3.37;;
9739;SDS011;4909;42.680;26.324;2023-04-25T12:57:58;7.63;;;3.27;;
9739;SDS011;4909;42.680;26.324;2023-04-25T13:00:24;8.80;;;3.63;;
9739;SDS011;4909;42.680;26.324;2023-04-25T13:02:51;8.20;;;3.47;;
9739;SDS011;4909;42.680;26.324;2023-04-25T13:05:18;7.77;;;3.30;;
9739;SDS011;4909;42.680;26.324;2023-04-25T13:07:45;7.97;;;3.57;;
9739;SDS011;4909;42.680;26.324;2023-04-25T13:10:11;8.67;;;3.73;;
9739;SDS011;4909;42.680;26.324;2023-04-25T13:12:38;6.23;;;3.23;;
9739;SDS011;4909;42.680;26.324;2023-04-25T13:15:07;7.93;;;3.60;;
9739;SDS011;4909;42.680;26.324;2023-04-25T13:17:36;6.93;;;3.17;;
9739;SDS011;4909;42.680;26.324;2023-04-25T13:20:03;7.43;;;3.40;;
9739;SDS011;4909;42.680;26.324;2023-04-25T13:22:33;8.20;;;3.60;;
9739;SDS011;4909;42.680;26.324;2023-04-25T13:25:01;10.47;;;4.03;;
9739;SDS011;4909;42.680;26.324;2023-04-25T13:27:29;6.80;;;3.50;;
9739;SDS011;4909;42.680;26.324;2023-04-25T13:29:57;9.33;;;4.03;;
9739;SDS011;4909;42.680;26.324;2023-04-25T13:32:25;7.43;;;3.70;;
9739;SDS011;4909;42.680;26.324;2023-04-25T13:34:52;11.03;;;4.47;;
9739;SDS011;4909;42.680;26.324;2023-04-25T13:37:19;8.23;;;3.80;;
9739;SDS011;4909;42.680;26.324;2023-04-25T13:39:49;9.93;;;4.47;;
9739;SDS011;4909;42.680;26.324;2023-04-25T13:42:16;9.43;;;4.50;;
9739;SDS011;4909;42.680;26.324;2023-04-25T13:44:42;6.47;;;3.73;;
9739;SDS011;4909;42.680;26.324;2023-04-25T13:47:09;9.00;;;4.43;;
9739;SDS011;4909;42.680;26.324;2023-04-25T13:49:38;9.10;;;4.50;;
9739;SDS011;4909;42.680;26.324;2023-04-25T13:52:05;11.60;;;4.90;;
9739;SDS011;4909;42.680;26.324;2023-04-25T13:54:32;9.03;;;4.27;;
9739;SDS011;4909;42.680;26.324;2023-04-25T13:56:59;9.23;;;4.40;;
9739;SDS011;4909;42.680;26.324;2023-04-25T13:59:27;8.23;;;3.90;;
9739;SDS011;4909;42.680;26.324;2023-04-25T14:01:54;11.43;;;5.00;;
9739;SDS011;4909;42.680;26.324;2023-04-25T14:04:20;9.33;;;4.67;;
9739;SDS011;4909;42.680;26.324;2023-04-25T14:06:48;10.10;;;4.70;;
9739;SDS011;4909;42.680;26.324;2023-04-25T14:09:16;11.43;;;4.80;;
9739;SDS011;4909;42.680;26.324;2023-04-25T14:11:43;11.40;;;4.77;;
9739;SDS011;4909;42.680;26.324;2023-04-25T14:14:10;12.20;;;4.93;;
9739;SDS011;4909;42.680;26.324;2023-04-25T14:16:37;7.27;;;3.80;;
9739;SDS011;4909;42.680;26.324;2023-04-25T14:19:04;9.27;;;4.23;;
9739;SDS011;4909;42.680;26.324;2023-04-25T14:21:31;6.47;;;3.70;;
9739;SDS011;4909;42.680;26.324;2023-04-25T14:23:59;6.50;;;3.50;;
9739;SDS011;4909;42.680;26.324;2023-04-25T14:26:26;8.67;;;3.93;;
9739;SDS011;4909;42.680;26.324;2023-04-25T14:28:53;7.63;;;3.63;;
9739;SDS011;4909;42.680;26.324;2023-04-25T14:31:20;7.30;;;3.50;;
9739;SDS011;4909;42.680;26.324;2023-04-25T14:33:47;10.70;;;4.53;;
9739;SDS011;4909;42.680;26.324;2023-04-25T14:36:14;9.53;;;4.20;;
9739;SDS011;4909;42.680;26.324;2023-04-25T14:38:40;15.27;;;5.37;;
9739;SDS011;4909;42.680;26.324;2023-04-25T14:41:09;9.70;;;4.23;;
9739;SDS011;4909;42.680;26.324;2023-04-25T14:43:35;7.07;;;3.20;;
9739;SDS011;4909;42.680;26.324;2023-04-25T14:46:02;10.03;;;4.20;;
9739;SDS011;4909;42.680;26.324;2023-04-25T14:48:29;8.00;;;3.73;;
9739;SDS011;4909;42.680;26.324;2023-04-25T14:50:56;6.90;;;4.03;;
9739;SDS011;4909;42.680;26.324;2023-04-25T14:53:23;8.53;;;3.70;;
9739;SDS011;4909;42.680;26.324;2023-04-25T14:55:49;6.13;;;3.40;;
9739;SDS011;4909;42.680;26.324;2023-04-25T14:58:18;10.30;;;4.40;;
9739;SDS011;4909;42.680;26.324;2023-04-25T15:00:44;9.57;;;4.23;;
9739;SDS011;4909;42.680;26.324;2023-04-25T15:03:11;6.73;;;3.73;;
9739;SDS011;4909;42.680;26.324;2023-04-25T15:05:39;6.97;;;3.43;;